Ana Sayfa
METAR-TAF:

METAR-TAF

Havaalanları :

Dakar, Senegal

Enlem: 14-44N, Boylam: 017-30W, yükseklik: 27 m

Güncel hava durumu gözlemi

Rapor saat 16:00 UTC de 1 saat ve 0 dakika önce yapıldı.
Rüzgar kuzey/kuzeydoğudan 12 kt
Sıcaklık 24°C
Nem 47%
Basınç 1014 hPa
Görüş mesafesi 10 km veya daha fazla
1500 m altında bulut yok ve kümülonimbus yok

METAR: GOOY 141600Z 02012KT CAVOK 24/12 Q1014

Saat: 17:00 (17:00 UTC)

Tahmin

Rapor saat 11:30 UTC de 5 saat ve 30 dakika önce yapıldı.
Ayın 14'si saat 12 UTC'den ayın 15'si saat 18 UTC'ye kadar geçerli Tahmin
Rüzgar kuzeydoğudan 15 kt
Görüş mesafesi: 8000 m

TAF: GOOY 141130Z 1412/1518 04015KT 8000 NSC

4.000'den fazla havaalanı için hava durumu gözlemleri ve tahminleri (METAR ve TAF raporları).

Kullanılabilir istasyonlar harita üzerinde sarı ve kırmızı noktalarla gösterilir.

İstasyonun adını görmek için fareyi noktanın üzerinde gezdirin.

Sonrasında hava gözlem ve tahminlerini görmek için tıklayın.

Haritayı değiştirmek için: yaklaştırmak için siyah artı işaretli yeşil düğmeye ve uzaklaştırmak için de eksi işaretli düğmeye hızla tıklayın; bitişik haritalar için yeşil okları kullanın.


METAR-TAF: